sensor_id;sensor_type;location;lat;lon;timestamp;temperature;humidity
31979;DHT22;18502;43.574;1.276;2022-09-03T00:02:00;21.60;84.30
31979;DHT22;18502;43.574;1.276;2022-09-03T00:04:41;21.40;84.80
31979;DHT22;18502;43.574;1.276;2022-09-03T00:07:18;21.50;84.80
31979;DHT22;18502;43.574;1.276;2022-09-03T00:09:52;21.60;84.70
31979;DHT22;18502;43.574;1.276;2022-09-03T00:12:27;21.60;84.90
31979;DHT22;18502;43.574;1.276;2022-09-03T00:15:16;21.50;84.90
31979;DHT22;18502;43.574;1.276;2022-09-03T00:18:03;21.30;85.60
31979;DHT22;18502;43.574;1.276;2022-09-03T00:20:53;21.10;86.50
31979;DHT22;18502;43.574;1.276;2022-09-03T00:23:25;21.30;86.30
31979;DHT22;18502;43.574;1.276;2022-09-03T00:26:00;21.30;86.20
31979;DHT22;18502;43.574;1.276;2022-09-03T00:28:41;21.30;86.40
31979;DHT22;18502;43.574;1.276;2022-09-03T00:33:45;21.40;86.10
31979;DHT22;18502;43.574;1.276;2022-09-03T00:36:30;21.20;86.20
31979;DHT22;18502;43.574;1.276;2022-09-03T00:38:57;21.30;86.10
31979;DHT22;18502;43.574;1.276;2022-09-03T00:46:48;21.10;86.30
31979;DHT22;18502;43.574;1.276;2022-09-03T00:55:00;20.90;88.20
31979;DHT22;18502;43.574;1.276;2022-09-03T01:00:16;20.80;90.00
31979;DHT22;18502;43.574;1.276;2022-09-03T01:03:09;20.60;90.90
31979;DHT22;18502;43.574;1.276;2022-09-03T01:17:07;20.20;92.30
31979;DHT22;18502;43.574;1.276;2022-09-03T01:22:20;20.10;92.90
31979;DHT22;18502;43.574;1.276;2022-09-03T01:30:20;20.40;92.90
31979;DHT22;18502;43.574;1.276;2022-09-03T01:32:59;20.50;93.00
31979;DHT22;18502;43.574;1.276;2022-09-03T01:35:42;20.50;93.10
31979;DHT22;18502;43.574;1.276;2022-09-03T01:38:36;20.40;93.20
31979;DHT22;18502;43.574;1.276;2022-09-03T01:46:42;20.50;93.40
31979;DHT22;18502;43.574;1.276;2022-09-03T01:49:23;20.50;93.50
31979;DHT22;18502;43.574;1.276;2022-09-03T01:57:29;19.70;95.70
31979;DHT22;18502;43.574;1.276;2022-09-03T02:00:16;19.70;96.20
31979;DHT22;18502;43.574;1.276;2022-09-03T02:02:46;19.60;96.40
31979;DHT22;18502;43.574;1.276;2022-09-03T02:05:18;19.60;96.60
31979;DHT22;18502;43.574;1.276;2022-09-03T02:07:59;19.60;96.60
31979;DHT22;18502;43.574;1.276;2022-09-03T02:13:24;19.50;97.20
31979;DHT22;18502;43.574;1.276;2022-09-03T02:15:52;19.50;97.70
31979;DHT22;18502;43.574;1.276;2022-09-03T02:18:27;19.40;97.40
31979;DHT22;18502;43.574;1.276;2022-09-03T02:20:53;19.40;97.90
31979;DHT22;18502;43.574;1.276;2022-09-03T02:23:19;19.50;99.80
31979;DHT22;18502;43.574;1.276;2022-09-03T02:25:50;19.30;98.40
31979;DHT22;18502;43.574;1.276;2022-09-03T02:28:16;19.30;99.90
31979;DHT22;18502;43.574;1.276;2022-09-03T02:30:43;19.10;99.90
31979;DHT22;18502;43.574;1.276;2022-09-03T02:33:09;18.90;99.90
31979;DHT22;18502;43.574;1.276;2022-09-03T02:35:35;18.80;99.90
31979;DHT22;18502;43.574;1.276;2022-09-03T02:38:18;18.80;99.90
31979;DHT22;18502;43.574;1.276;2022-09-03T02:40:44;18.90;99.90
31979;DHT22;18502;43.574;1.276;2022-09-03T02:46:21;18.80;99.90
31979;DHT22;18502;43.574;1.276;2022-09-03T02:48:48;18.80;99.90
31979;DHT22;18502;43.574;1.276;2022-09-03T02:51:14;18.80;99.90
31979;DHT22;18502;43.574;1.276;2022-09-03T02:53:41;18.90;99.90
31979;DHT22;18502;43.574;1.276;2022-09-03T02:56:07;18.90;99.90
31979;DHT22;18502;43.574;1.276;2022-09-03T02:58:32;18.80;99.90
31979;DHT22;18502;43.574;1.276;2022-09-03T03:00:58;18.70;99.90
31979;DHT22;18502;43.574;1.276;2022-09-03T03:03:25;18.60;99.90
31979;DHT22;18502;43.574;1.276;2022-09-03T03:05:54;18.70;99.90
31979;DHT22;18502;43.574;1.276;2022-09-03T03:08:21;18.80;99.90
31979;DHT22;18502;43.574;1.276;2022-09-03T03:10:51;18.70;99.90
31979;DHT22;18502;43.574;1.276;2022-09-03T03:13:18;18.70;99.90
31979;DHT22;18502;43.574;1.276;2022-09-03T03:15:43;18.60;99.90
31979;DHT22;18502;43.574;1.276;2022-09-03T03:18:10;18.70;99.90
31979;DHT22;18502;43.574;1.276;2022-09-03T03:20:37;18.90;99.90
31979;DHT22;18502;43.574;1.276;2022-09-03T03:23:04;19.10;99.90
31979;DHT22;18502;43.574;1.276;2022-09-03T03:25:34;19.10;99.90
31979;DHT22;18502;43.574;1.276;2022-09-03T03:28:00;19.10;99.90
31979;DHT22;18502;43.574;1.276;2022-09-03T03:30:26;19.30;99.90
31979;DHT22;18502;43.574;1.276;2022-09-03T03:32:53;19.30;99.90
31979;DHT22;18502;43.574;1.276;2022-09-03T03:35:19;19.30;99.90
31979;DHT22;18502;43.574;1.276;2022-09-03T03:37:45;19.40;99.90
31979;DHT22;18502;43.574;1.276;2022-09-03T03:40:11;19.30;99.90
31979;DHT22;18502;43.574;1.276;2022-09-03T03:42:37;19.30;99.90
31979;DHT22;18502;43.574;1.276;2022-09-03T03:45:04;19.30;99.90
31979;DHT22;18502;43.574;1.276;2022-09-03T03:47:31;19.10;99.90
31979;DHT22;18502;43.574;1.276;2022-09-03T03:49:58;19.00;99.90
31979;DHT22;18502;43.574;1.276;2022-09-03T03:52:25;19.00;99.90
31979;DHT22;18502;43.574;1.276;2022-09-03T03:54:51;19.00;99.90
31979;DHT22;18502;43.574;1.276;2022-09-03T03:57:17;18.80;99.90
31979;DHT22;18502;43.574;1.276;2022-09-03T03:59:47;18.80;99.90
31979;DHT22;18502;43.574;1.276;2022-09-03T04:02:13;18.40;99.90
31979;DHT22;18502;43.574;1.276;2022-09-03T04:04:39;18.20;99.90
31979;DHT22;18502;43.574;1.276;2022-09-03T04:07:05;18.10;99.90
31979;DHT22;18502;43.574;1.276;2022-09-03T04:09:31;18.10;99.90
31979;DHT22;18502;43.574;1.276;2022-09-03T04:11:57;18.10;99.90
31979;DHT22;18502;43.574;1.276;2022-09-03T04:14:23;17.90;99.90
31979;DHT22;18502;43.574;1.276;2022-09-03T04:16:50;17.90;99.90
31979;DHT22;18502;43.574;1.276;2022-09-03T04:19:16;17.90;99.90
31979;DHT22;18502;43.574;1.276;2022-09-03T04:21:42;18.00;99.90
31979;DHT22;18502;43.574;1.276;2022-09-03T04:24:08;18.00;99.90
31979;DHT22;18502;43.574;1.276;2022-09-03T04:26:35;18.10;99.90
31979;DHT22;18502;43.574;1.276;2022-09-03T04:29:08;18.10;99.90
31979;DHT22;18502;43.574;1.276;2022-09-03T04:31:35;18.20;99.90
31979;DHT22;18502;43.574;1.276;2022-09-03T04:34:01;18.30;99.90
31979;DHT22;18502;43.574;1.276;2022-09-03T04:36:28;18.30;99.90
31979;DHT22;18502;43.574;1.276;2022-09-03T04:38:57;18.40;99.90
31979;DHT22;18502;43.574;1.276;2022-09-03T04:41:25;18.40;99.90
31979;DHT22;18502;43.574;1.276;2022-09-03T04:43:52;18.20;99.90
31979;DHT22;18502;43.574;1.276;2022-09-03T04:46:19;18.30;99.90
31979;DHT22;18502;43.574;1.276;2022-09-03T04:48:50;18.30;99.90
31979;DHT22;18502;43.574;1.276;2022-09-03T04:51:19;18.30;99.90
31979;DHT22;18502;43.574;1.276;2022-09-03T04:53:46;18.50;99.90
31979;DHT22;18502;43.574;1.276;2022-09-03T04:56:22;18.70;99.90
31979;DHT22;18502;43.574;1.276;2022-09-03T04:58:52;18.40;99.90
31979;DHT22;18502;43.574;1.276;2022-09-03T05:01:19;18.30;99.90
31979;DHT22;18502;43.574;1.276;2022-09-03T05:03:46;18.30;99.90
31979;DHT22;18502;43.574;1.276;2022-09-03T05:06:12;18.30;99.90
31979;DHT22;18502;43.574;1.276;2022-09-03T05:08:38;18.20;99.90
31979;DHT22;18502;43.574;1.276;2022-09-03T05:11:06;18.30;99.90
31979;DHT22;18502;43.574;1.276;2022-09-03T05:13:34;18.20;99.90
31979;DHT22;18502;43.574;1.276;2022-09-03T05:16:10;18.20;99.90
31979;DHT22;18502;43.574;1.276;2022-09-03T05:18:37;18.10;99.90
31979;DHT22;18502;43.574;1.276;2022-09-03T05:21:06;18.10;99.90
31979;DHT22;18502;43.574;1.276;2022-09-03T05:23:36;18.30;99.90
31979;DHT22;18502;43.574;1.276;2022-09-03T05:26:05;18.20;99.90
31979;DHT22;18502;43.574;1.276;2022-09-03T05:28:33;18.20;99.90
31979;DHT22;18502;43.574;1.276;2022-09-03T05:31:12;18.30;99.90
31979;DHT22;18502;43.574;1.276;2022-09-03T05:33:48;18.30;99.90
31979;DHT22;18502;43.574;1.276;2022-09-03T05:36:17;18.40;99.90
31979;DHT22;18502;43.574;1.276;2022-09-03T05:38:44;18.30;99.90
31979;DHT22;18502;43.574;1.276;2022-09-03T05:41:11;18.50;99.90
31979;DHT22;18502;43.574;1.276;2022-09-03T05:43:38;18.30;99.90
31979;DHT22;18502;43.574;1.276;2022-09-03T05:46:13;18.20;99.90
31979;DHT22;18502;43.574;1.276;2022-09-03T05:48:43;18.20;99.90
31979;DHT22;18502;43.574;1.276;2022-09-03T05:51:10;18.20;99.90
31979;DHT22;18502;43.574;1.276;2022-09-03T05:53:38;18.20;99.90
31979;DHT22;18502;43.574;1.276;2022-09-03T05:56:07;18.10;99.90
31979;DHT22;18502;43.574;1.276;2022-09-03T05:58:39;18.20;99.90
31979;DHT22;18502;43.574;1.276;2022-09-03T06:01:34;18.10;99.90
31979;DHT22;18502;43.574;1.276;2022-09-03T06:04:05;18.10;99.90
31979;DHT22;18502;43.574;1.276;2022-09-03T06:06:33;18.20;99.90
31979;DHT22;18502;43.574;1.276;2022-09-03T06:09:10;18.20;99.90
31979;DHT22;18502;43.574;1.276;2022-09-03T06:11:38;18.20;99.90
31979;DHT22;18502;43.574;1.276;2022-09-03T06:14:05;18.10;99.90
31979;DHT22;18502;43.574;1.276;2022-09-03T06:16:34;18.30;99.90
31979;DHT22;18502;43.574;1.276;2022-09-03T06:19:01;18.30;99.90
31979;DHT22;18502;43.574;1.276;2022-09-03T06:21:27;18.30;99.90
31979;DHT22;18502;43.574;1.276;2022-09-03T06:23:55;18.50;99.90
31979;DHT22;18502;43.574;1.276;2022-09-03T06:26:22;18.50;99.90
31979;DHT22;18502;43.574;1.276;2022-09-03T06:28:48;18.60;99.90
31979;DHT22;18502;43.574;1.276;2022-09-03T06:31:16;18.60;99.90
31979;DHT22;18502;43.574;1.276;2022-09-03T06:33:43;18.70;99.90
31979;DHT22;18502;43.574;1.276;2022-09-03T06:36:10;18.80;99.90
31979;DHT22;18502;43.574;1.276;2022-09-03T06:38:38;19.00;99.90
31979;DHT22;18502;43.574;1.276;2022-09-03T06:41:08;19.10;99.90
31979;DHT22;18502;43.574;1.276;2022-09-03T06:43:36;19.30;99.90
31979;DHT22;18502;43.574;1.276;2022-09-03T06:46:06;19.20;99.90
31979;DHT22;18502;43.574;1.276;2022-09-03T06:48:33;19.20;99.90
31979;DHT22;18502;43.574;1.276;2022-09-03T06:51:01;19.30;99.90
31979;DHT22;18502;43.574;1.276;2022-09-03T06:53:33;19.40;99.90
31979;DHT22;18502;43.574;1.276;2022-09-03T06:56:04;19.40;99.90
31979;DHT22;18502;43.574;1.276;2022-09-03T06:58:31;19.50;99.90
31979;DHT22;18502;43.574;1.276;2022-09-03T07:01:11;19.60;99.90
31979;DHT22;18502;43.574;1.276;2022-09-03T07:03:38;19.70;99.90
31979;DHT22;18502;43.574;1.276;2022-09-03T07:06:09;19.90;99.90
31979;DHT22;18502;43.574;1.276;2022-09-03T07:08:35;20.10;99.90
31979;DHT22;18502;43.574;1.276;2022-09-03T07:11:02;20.50;99.90
31979;DHT22;18502;43.574;1.276;2022-09-03T07:13:30;20.70;99.90
31979;DHT22;18502;43.574;1.276;2022-09-03T07:16:02;20.70;99.90
31979;DHT22;18502;43.574;1.276;2022-09-03T07:18:29;20.40;99.90
31979;DHT22;18502;43.574;1.276;2022-09-03T07:20:59;20.30;99.90
31979;DHT22;18502;43.574;1.276;2022-09-03T07:23:25;20.30;99.90
31979;DHT22;18502;43.574;1.276;2022-09-03T07:25:53;20.40;99.90
31979;DHT22;18502;43.574;1.276;2022-09-03T07:28:19;20.70;99.90
31979;DHT22;18502;43.574;1.276;2022-09-03T07:30:46;20.90;99.90
31979;DHT22;18502;43.574;1.276;2022-09-03T07:33:11;21.20;99.90
31979;DHT22;18502;43.574;1.276;2022-09-03T07:35:37;21.30;99.90
31979;DHT22;18502;43.574;1.276;2022-09-03T07:38:03;20.90;99.90
31979;DHT22;18502;43.574;1.276;2022-09-03T07:40:28;21.10;99.90
31979;DHT22;18502;43.574;1.276;2022-09-03T07:42:57;20.80;99.90
31979;DHT22;18502;43.574;1.276;2022-09-03T07:45:31;20.70;99.90
31979;DHT22;18502;43.574;1.276;2022-09-03T07:47:58;20.70;99.90
31979;DHT22;18502;43.574;1.276;2022-09-03T07:50:24;20.60;99.90
31979;DHT22;18502;43.574;1.276;2022-09-03T07:52:55;20.60;99.90
31979;DHT22;18502;43.574;1.276;2022-09-03T07:55:21;20.60;99.90
31979;DHT22;18502;43.574;1.276;2022-09-03T07:57:46;20.80;99.90
31979;DHT22;18502;43.574;1.276;2022-09-03T08:00:13;21.10;99.90
31979;DHT22;18502;43.574;1.276;2022-09-03T08:02:39;21.20;99.90
31979;DHT22;18502;43.574;1.276;2022-09-03T08:05:05;21.80;99.90
31979;DHT22;18502;43.574;1.276;2022-09-03T08:07:31;21.50;99.90
31979;DHT22;18502;43.574;1.276;2022-09-03T08:09:57;21.50;99.90
31979;DHT22;18502;43.574;1.276;2022-09-03T08:12:23;21.50;99.90
31979;DHT22;18502;43.574;1.276;2022-09-03T08:14:49;21.80;99.90
31979;DHT22;18502;43.574;1.276;2022-09-03T08:17:15;21.60;99.90
31979;DHT22;18502;43.574;1.276;2022-09-03T08:19:41;21.70;99.90
31979;DHT22;18502;43.574;1.276;2022-09-03T08:22:08;21.50;99.90
31979;DHT22;18502;43.574;1.276;2022-09-03T08:24:34;21.40;99.90
31979;DHT22;18502;43.574;1.276;2022-09-03T08:27:00;21.30;99.90
31979;DHT22;18502;43.574;1.276;2022-09-03T08:29:26;21.80;99.90
31979;DHT22;18502;43.574;1.276;2022-09-03T08:31:52;22.50;99.90
31979;DHT22;18502;43.574;1.276;2022-09-03T08:34:18;23.10;99.90
31979;DHT22;18502;43.574;1.276;2022-09-03T08:36:45;23.50;99.90
31979;DHT22;18502;43.574;1.276;2022-09-03T08:39:11;24.00;99.90
31979;DHT22;18502;43.574;1.276;2022-09-03T08:44:30;24.40;99.90
31979;DHT22;18502;43.574;1.276;2022-09-03T08:47:22;24.60;99.90
31979;DHT22;18502;43.574;1.276;2022-09-03T08:52:32;25.30;99.70
31979;DHT22;18502;43.574;1.276;2022-09-03T09:08:58;26.70;92.50
31979;DHT22;18502;43.574;1.276;2022-09-03T09:14:18;27.30;92.20
31979;DHT22;18502;43.574;1.276;2022-09-03T09:19:45;26.10;91.20
31979;DHT22;18502;43.574;1.276;2022-09-03T09:22:45;26.50;89.60
31979;DHT22;18502;43.574;1.276;2022-09-03T09:25:20;25.60;91.70
31979;DHT22;18502;43.574;1.276;2022-09-03T09:30:16;25.00;91.60
31979;DHT22;18502;43.574;1.276;2022-09-03T09:32:42;25.40;91.50
31979;DHT22;18502;43.574;1.276;2022-09-03T09:35:09;25.50;90.40
31979;DHT22;18502;43.574;1.276;2022-09-03T09:37:46;26.40;89.20
31979;DHT22;18502;43.574;1.276;2022-09-03T09:40:23;27.40;87.30
31979;DHT22;18502;43.574;1.276;2022-09-03T09:42:50;28.30;86.60
31979;DHT22;18502;43.574;1.276;2022-09-03T09:45:23;28.50;84.80
31979;DHT22;18502;43.574;1.276;2022-09-03T09:47:54;27.90;85.50
31979;DHT22;18502;43.574;1.276;2022-09-03T09:50:20;28.00;83.70
31979;DHT22;18502;43.574;1.276;2022-09-03T09:52:47;28.00;84.40
31979;DHT22;18502;43.574;1.276;2022-09-03T09:55:18;28.00;82.30
31979;DHT22;18502;43.574;1.276;2022-09-03T09:57:44;28.00;80.10
31979;DHT22;18502;43.574;1.276;2022-09-03T10:00:17;28.00;80.30
31979;DHT22;18502;43.574;1.276;2022-09-03T10:02:48;28.50;79.10
31979;DHT22;18502;43.574;1.276;2022-09-03T10:05:21;29.00;77.50
31979;DHT22;18502;43.574;1.276;2022-09-03T10:07:59;29.10;75.60
31979;DHT22;18502;43.574;1.276;2022-09-03T10:10:26;29.50;76.60
31979;DHT22;18502;43.574;1.276;2022-09-03T10:13:26;29.80;71.40
31979;DHT22;18502;43.574;1.276;2022-09-03T10:16:07;28.50;73.40
31979;DHT22;18502;43.574;1.276;2022-09-03T10:18:52;28.80;72.90
31979;DHT22;18502;43.574;1.276;2022-09-03T10:27:17;28.40;72.20
31979;DHT22;18502;43.574;1.276;2022-09-03T10:29:44;28.20;72.10
31979;DHT22;18502;43.574;1.276;2022-09-03T10:32:13;27.20;73.70
31979;DHT22;18502;43.574;1.276;2022-09-03T10:37:38;28.30;72.00
31979;DHT22;18502;43.574;1.276;2022-09-03T10:40:15;28.80;67.70
31979;DHT22;18502;43.574;1.276;2022-09-03T10:50:48;29.70;60.20
31979;DHT22;18502;43.574;1.276;2022-09-03T10:56:18;29.00;61.40
31979;DHT22;18502;43.574;1.276;2022-09-03T11:04:45;37.00;46.90
31979;DHT22;18502;43.574;1.276;2022-09-03T11:07:20;35.70;47.70
31979;DHT22;18502;43.574;1.276;2022-09-03T11:10:05;38.10;42.60
31979;DHT22;18502;43.574;1.276;2022-09-03T11:12:44;35.50;43.40
31979;DHT22;18502;43.574;1.276;2022-09-03T11:20:37;37.00;43.40
31979;DHT22;18502;43.574;1.276;2022-09-03T11:23:05;37.50;38.50
31979;DHT22;18502;43.574;1.276;2022-09-03T11:25:41;40.60;37.70
31979;DHT22;18502;43.574;1.276;2022-09-03T11:33:53;37.30;39.70
31979;DHT22;18502;43.574;1.276;2022-09-03T11:36:32;36.80;37.70
31979;DHT22;18502;43.574;1.276;2022-09-03T11:38:58;34.00;43.00
31979;DHT22;18502;43.574;1.276;2022-09-03T11:41:31;33.40;44.40
31979;DHT22;18502;43.574;1.276;2022-09-03T11:44:15;32.80;45.90
31979;DHT22;18502;43.574;1.276;2022-09-03T11:46:55;32.30;47.70
31979;DHT22;18502;43.574;1.276;2022-09-03T11:49:29;31.60;49.00
31979;DHT22;18502;43.574;1.276;2022-09-03T11:52:00;31.30;50.10
31979;DHT22;18502;43.574;1.276;2022-09-03T11:54:26;31.20;50.50
31979;DHT22;18502;43.574;1.276;2022-09-03T11:57:14;31.30;50.70
31979;DHT22;18502;43.574;1.276;2022-09-03T11:59:41;32.70;49.20
31979;DHT22;18502;43.574;1.276;2022-09-03T12:02:33;39.80;38.70
31979;DHT22;18502;43.574;1.276;2022-09-03T12:07:38;40.80;33.50
31979;DHT22;18502;43.574;1.276;2022-09-03T12:10:25;42.20;33.10
31979;DHT22;18502;43.574;1.276;2022-09-03T12:13:10;43.80;29.20
31979;DHT22;18502;43.574;1.276;2022-09-03T12:18:42;35.80;38.50
31979;DHT22;18502;43.574;1.276;2022-09-03T12:21:10;34.50;41.30
31979;DHT22;18502;43.574;1.276;2022-09-03T12:23:44;33.30;42.30
31979;DHT22;18502;43.574;1.276;2022-09-03T12:26:14;33.60;42.60
31979;DHT22;18502;43.574;1.276;2022-09-03T12:28:47;33.10;43.40
31979;DHT22;18502;43.574;1.276;2022-09-03T12:33:57;32.20;45.50
31979;DHT22;18502;43.574;1.276;2022-09-03T12:36:39;32.20;45.30
31979;DHT22;18502;43.574;1.276;2022-09-03T12:39:14;32.20;45.90
31979;DHT22;18502;43.574;1.276;2022-09-03T12:47:12;32.70;43.80
31979;DHT22;18502;43.574;1.276;2022-09-03T12:52:33;36.00;39.30
31979;DHT22;18502;43.574;1.276;2022-09-03T12:57:45;44.40;29.70
31979;DHT22;18502;43.574;1.276;2022-09-03T13:00:15;45.80;28.00
31979;DHT22;18502;43.574;1.276;2022-09-03T13:02:50;43.30;26.90
31979;DHT22;18502;43.574;1.276;2022-09-03T13:05:34;41.60;29.60
31979;DHT22;18502;43.574;1.276;2022-09-03T13:08:02;43.60;27.90
31979;DHT22;18502;43.574;1.276;2022-09-03T13:10:37;46.60;25.70
31979;DHT22;18502;43.574;1.276;2022-09-03T13:13:32;47.80;23.50
31979;DHT22;18502;43.574;1.276;2022-09-03T13:43:28;36.80;33.40
31979;DHT22;18502;43.574;1.276;2022-09-03T13:48:50;44.20;25.00
31979;DHT22;18502;43.574;1.276;2022-09-03T13:51:50;44.50;24.70
31979;DHT22;18502;43.574;1.276;2022-09-03T13:54:29;47.60;22.20
31979;DHT22;18502;43.574;1.276;2022-09-03T13:57:06;48.40;20.60
31979;DHT22;18502;43.574;1.276;2022-09-03T13:59:55;49.60;19.40
31979;DHT22;18502;43.574;1.276;2022-09-03T14:05:35;50.00;19.20
31979;DHT22;18502;43.574;1.276;2022-09-03T14:08:11;45.40;20.60
31979;DHT22;18502;43.574;1.276;2022-09-03T14:16:41;36.20;31.50
31979;DHT22;18502;43.574;1.276;2022-09-03T14:19:18;35.10;32.90
31979;DHT22;18502;43.574;1.276;2022-09-03T14:21:58;35.00;33.80
31979;DHT22;18502;43.574;1.276;2022-09-03T14:24:43;34.60;34.10
31979;DHT22;18502;43.574;1.276;2022-09-03T14:27:10;34.30;34.50
31979;DHT22;18502;43.574;1.276;2022-09-03T14:29:36;34.10;35.10
31979;DHT22;18502;43.574;1.276;2022-09-03T14:59:33;41.40;27.20
31979;DHT22;18502;43.574;1.276;2022-09-03T15:05:08;36.50;31.40
31979;DHT22;18502;43.574;1.276;2022-09-03T15:07:41;39.30;29.80
31979;DHT22;18502;43.574;1.276;2022-09-03T15:10:31;43.50;25.00
31979;DHT22;18502;43.574;1.276;2022-09-03T15:18:26;35.90;31.70
31979;DHT22;18502;43.574;1.276;2022-09-03T15:21:00;39.10;28.80
31979;DHT22;18502;43.574;1.276;2022-09-03T15:31:41;38.80;30.00
31979;DHT22;18502;43.574;1.276;2022-09-03T15:36:50;43.70;24.50
31979;DHT22;18502;43.574;1.276;2022-09-03T15:41:59;45.60;22.80
31979;DHT22;18502;43.574;1.276;2022-09-03T15:44:35;45.60;22.30
31979;DHT22;18502;43.574;1.276;2022-09-03T15:47:07;45.20;22.10
31979;DHT22;18502;43.574;1.276;2022-09-03T15:54:55;36.40;29.90
31979;DHT22;18502;43.574;1.276;2022-09-03T15:57:29;35.00;32.20
31979;DHT22;18502;43.574;1.276;2022-09-03T16:00:11;35.30;32.60
31979;DHT22;18502;43.574;1.276;2022-09-03T16:05:47;37.30;28.80
31979;DHT22;18502;43.574;1.276;2022-09-03T16:11:12;34.50;33.30
31979;DHT22;18502;43.574;1.276;2022-09-03T16:19:42;33.20;34.90
31979;DHT22;18502;43.574;1.276;2022-09-03T16:22:39;32.50;36.50
31979;DHT22;18502;43.574;1.276;2022-09-03T16:25:09;34.60;34.10
31979;DHT22;18502;43.574;1.276;2022-09-03T16:27:49;35.40;32.60
31979;DHT22;18502;43.574;1.276;2022-09-03T16:30:41;37.20;30.90
31979;DHT22;18502;43.574;1.276;2022-09-03T16:33:23;36.30;30.20
31979;DHT22;18502;43.574;1.276;2022-09-03T16:41:20;39.80;27.10
31979;DHT22;18502;43.574;1.276;2022-09-03T16:47:21;40.10;26.40
31979;DHT22;18502;43.574;1.276;2022-09-03T16:49:56;40.50;25.80
31979;DHT22;18502;43.574;1.276;2022-09-03T16:52:44;40.30;25.80
31979;DHT22;18502;43.574;1.276;2022-09-03T17:07:31;39.00;26.90
31979;DHT22;18502;43.574;1.276;2022-09-03T17:15:48;39.20;26.70
31979;DHT22;18502;43.574;1.276;2022-09-03T17:18:18;38.80;27.00
31979;DHT22;18502;43.574;1.276;2022-09-03T17:29:50;35.20;31.30
31979;DHT22;18502;43.574;1.276;2022-09-03T17:32:33;34.80;32.20
31979;DHT22;18502;43.574;1.276;2022-09-03T17:35:19;34.00;32.60
31979;DHT22;18502;43.574;1.276;2022-09-03T17:43:45;33.30;35.00
31979;DHT22;18502;43.574;1.276;2022-09-03T17:49:00;32.50;36.00
31979;DHT22;18502;43.574;1.276;2022-09-03T18:02:35;30.00;41.50
31979;DHT22;18502;43.574;1.276;2022-09-03T18:05:29;29.70;42.20
31979;DHT22;18502;43.574;1.276;2022-09-03T18:14:14;28.70;45.10
31979;DHT22;18502;43.574;1.276;2022-09-03T18:16:33;28.40;45.70
31979;DHT22;18502;43.574;1.276;2022-09-03T18:21:58;28.00;46.70
31979;DHT22;18502;43.574;1.276;2022-09-03T18:24:54;27.40;48.10
31979;DHT22;18502;43.574;1.276;2022-09-03T18:27:47;27.20;49.10
31979;DHT22;18502;43.574;1.276;2022-09-03T18:30:33;27.00;49.80
31979;DHT22;18502;43.574;1.276;2022-09-03T18:33:25;27.00;50.00
31979;DHT22;18502;43.574;1.276;2022-09-03T18:36:10;26.70;50.20
31979;DHT22;18502;43.574;1.276;2022-09-03T18:39:36;26.70;50.80
31979;DHT22;18502;43.574;1.276;2022-09-03T18:51:22;26.20;53.20
31979;DHT22;18502;43.574;1.276;2022-09-03T18:54:18;26.10;53.90
31979;DHT22;18502;43.574;1.276;2022-09-03T18:57:23;26.10;54.00
31979;DHT22;18502;43.574;1.276;2022-09-03T19:00:11;26.10;54.10
31979;DHT22;18502;43.574;1.276;2022-09-03T19:06:15;25.90;54.80
31979;DHT22;18502;43.574;1.276;2022-09-03T19:15:23;25.50;56.20
31979;DHT22;18502;43.574;1.276;2022-09-03T19:21:51;25.40;56.70
31979;DHT22;18502;43.574;1.276;2022-09-03T19:24:37;25.30;57.10
31979;DHT22;18502;43.574;1.276;2022-09-03T19:34:07;25.20;58.50
31979;DHT22;18502;43.574;1.276;2022-09-03T19:52:08;25.10;60.10
31979;DHT22;18502;43.574;1.276;2022-09-03T19:54:56;25.10;60.30
31979;DHT22;18502;43.574;1.276;2022-09-03T19:57:43;25.00;60.10
31979;DHT22;18502;43.574;1.276;2022-09-03T20:00:30;25.00;60.40
31979;DHT22;18502;43.574;1.276;2022-09-03T20:03:15;24.90;60.60
31979;DHT22;18502;43.574;1.276;2022-09-03T20:06:04;24.80;60.80
31979;DHT22;18502;43.574;1.276;2022-09-03T20:08:50;24.80;61.40
31979;DHT22;18502;43.574;1.276;2022-09-03T20:11:37;24.80;62.80
31979;DHT22;18502;43.574;1.276;2022-09-03T20:14:10;24.70;61.70
31979;DHT22;18502;43.574;1.276;2022-09-03T20:17:13;24.70;61.60
31979;DHT22;18502;43.574;1.276;2022-09-03T20:20:18;24.60;62.40
31979;DHT22;18502;43.574;1.276;2022-09-03T20:22:58;24.50;63.80
31979;DHT22;18502;43.574;1.276;2022-09-03T20:26:15;24.40;64.30
31979;DHT22;18502;43.574;1.276;2022-09-03T20:39:30;23.80;66.50
31979;DHT22;18502;43.574;1.276;2022-09-03T20:42:07;23.80;66.90
31979;DHT22;18502;43.574;1.276;2022-09-03T20:48:04;23.50;68.50
31979;DHT22;18502;43.574;1.276;2022-09-03T20:50:53;23.50;69.20
31979;DHT22;18502;43.574;1.276;2022-09-03T20:56:02;23.30;70.40
31979;DHT22;18502;43.574;1.276;2022-09-03T20:58:52;23.20;71.20
31979;DHT22;18502;43.574;1.276;2022-09-03T21:09:47;23.00;73.50
31979;DHT22;18502;43.574;1.276;2022-09-03T21:18:02;23.10;73.40
31979;DHT22;18502;43.574;1.276;2022-09-03T21:21:05;23.10;73.60
31979;DHT22;18502;43.574;1.276;2022-09-03T21:23:41;23.00;73.70
31979;DHT22;18502;43.574;1.276;2022-09-03T21:29:39;23.10;73.50
31979;DHT22;18502;43.574;1.276;2022-09-03T21:37:12;22.90;74.30
31979;DHT22;18502;43.574;1.276;2022-09-03T21:39:50;22.90;74.70
31979;DHT22;18502;43.574;1.276;2022-09-03T21:44:54;22.70;74.80
31979;DHT22;18502;43.574;1.276;2022-09-03T21:47:23;22.60;75.60
31979;DHT22;18502;43.574;1.276;2022-09-03T21:50:11;22.60;75.90
31979;DHT22;18502;43.574;1.276;2022-09-03T22:00:26;22.20;77.40
31979;DHT22;18502;43.574;1.276;2022-09-03T22:02:58;22.20;77.80
31979;DHT22;18502;43.574;1.276;2022-09-03T22:05:31;22.10;78.30
31979;DHT22;18502;43.574;1.276;2022-09-03T22:08:17;22.00;78.70
31979;DHT22;18502;43.574;1.276;2022-09-03T22:10:55;21.90;79.30
31979;DHT22;18502;43.574;1.276;2022-09-03T22:18:38;21.80;81.10
31979;DHT22;18502;43.574;1.276;2022-09-03T22:21:27;21.80;81.20
31979;DHT22;18502;43.574;1.276;2022-09-03T22:30:17;21.70;83.50
31979;DHT22;18502;43.574;1.276;2022-09-03T22:33:05;21.60;84.30
31979;DHT22;18502;43.574;1.276;2022-09-03T22:40:49;21.40;85.80
31979;DHT22;18502;43.574;1.276;2022-09-03T22:43:40;21.40;86.00
31979;DHT22;18502;43.574;1.276;2022-09-03T22:46:17;21.40;86.70
31979;DHT22;18502;43.574;1.276;2022-09-03T22:49:19;21.30;87.50
31979;DHT22;18502;43.574;1.276;2022-09-03T22:51:55;21.30;87.90
31979;DHT22;18502;43.574;1.276;2022-09-03T22:54:35;21.40;88.20
31979;DHT22;18502;43.574;1.276;2022-09-03T22:57:03;21.30;88.90
31979;DHT22;18502;43.574;1.276;2022-09-03T22:59:43;21.10;89.30
31979;DHT22;18502;43.574;1.276;2022-09-03T23:02:19;21.10;90.50
31979;DHT22;18502;43.574;1.276;2022-09-03T23:05:08;21.00;90.50
31979;DHT22;18502;43.574;1.276;2022-09-03T23:08:08;20.90;90.90
31979;DHT22;18502;43.574;1.276;2022-09-03T23:10:52;20.90;90.90